createdAt,value
2019-04-29T00:00:12.701Z,102272.53
2019-04-29T00:02:43.663Z,102271.97
2019-04-29T00:05:13.187Z,102270.70
2019-04-29T00:07:42.512Z,102273.80
2019-04-29T00:10:13.344Z,102277.72
2019-04-29T00:12:42.820Z,102281.06
2019-04-29T00:15:30.143Z,102282.95
2019-04-29T00:18:01.155Z,102283.41
2019-04-29T00:20:32.071Z,102282.94
2019-04-29T00:23:01.518Z,102288.94
2019-04-29T00:25:30.789Z,102289.52
2019-04-29T00:28:00.154Z,102295.42
2019-04-29T00:30:29.511Z,102293.14
2019-04-29T00:32:58.879Z,102298.08
2019-04-29T00:35:28.243Z,102302.59
2019-04-29T00:38:01.817Z,102300.87
2019-04-29T00:40:44.989Z,102308.69
2019-04-29T00:43:15.950Z,102310.88
2019-04-29T00:45:45.407Z,102317.70
2019-04-29T00:48:16.205Z,102315.73
2019-04-29T00:50:45.717Z,102316.53
2019-04-29T00:53:16.079Z,102316.42
2019-04-29T00:55:45.383Z,102317.35
2019-04-29T00:58:14.671Z,102319.98
2019-04-29T01:00:44.050Z,102322.31
2019-04-29T01:03:13.400Z,102321.48
2019-04-29T01:05:44.011Z,102325.89
2019-04-29T01:08:14.450Z,102323.12
2019-04-29T01:10:43.761Z,102322.53
2019-04-29T01:13:13.047Z,102328.06
2019-04-29T01:15:42.384Z,102332.77
2019-04-29T01:18:11.843Z,102330.46
2019-04-29T01:20:41.215Z,102322.73
2019-04-29T01:23:10.490Z,102324.70
2019-04-29T01:25:40.962Z,102336.20
2019-04-29T01:28:28.517Z,102337.48
2019-04-29T01:31:02.072Z,102335.08
2019-04-29T01:33:31.531Z,102337.98
2019-04-29T01:36:08.511Z,102334.39
2019-04-29T01:38:38.867Z,102338.20
2019-04-29T01:41:12.757Z,102339.92
2019-04-29T01:44:02.110Z,102337.84
2019-04-29T01:46:31.414Z,102341.53
2019-04-29T01:49:00.756Z,102350.77
2019-04-29T01:51:30.086Z,102354.42
2019-04-29T01:53:59.439Z,102354.08
2019-04-29T01:56:28.920Z,102351.67
2019-04-29T01:58:58.191Z,102352.60
2019-04-29T02:01:27.507Z,102356.06
2019-04-29T02:03:56.794Z,102351.46
2019-04-29T02:06:26.118Z,102354.33
2019-04-29T02:08:56.360Z,102349.04
2019-04-29T02:11:25.820Z,102350.28
2019-04-29T02:13:55.204Z,102361.82
2019-04-29T02:16:24.517Z,102364.45
2019-04-29T02:18:53.970Z,102365.37
2019-04-29T02:21:23.273Z,102363.20
2019-04-29T02:23:54.201Z,102367.77
2019-04-29T02:26:23.512Z,102370.85
2019-04-29T02:28:52.875Z,102368.39
2019-04-29T02:31:36.534Z,102371.28
2019-04-29T02:34:06.054Z,102370.11
2019-04-29T02:36:35.670Z,102373.45
2019-04-29T02:39:27.005Z,102370.59
2019-04-29T02:42:00.648Z,102372.77
2019-04-29T02:44:29.946Z,102383.74
2019-04-29T02:46:59.288Z,102385.23
2019-04-29T02:49:28.591Z,102383.07
2019-04-29T02:51:57.891Z,102389.39
2019-04-29T02:54:28.651Z,102386.55
2019-04-29T02:57:14.575Z,102387.84
2019-04-29T02:59:54.533Z,102382.08
2019-04-29T03:02:28.528Z,102389.03
2019-04-29T03:05:08.299Z,102384.41
2019-04-29T03:07:37.561Z,102392.48
2019-04-29T03:10:07.439Z,102385.09
2019-04-29T03:12:36.790Z,102387.89
2019-04-29T03:15:07.230Z,102394.80
2019-04-29T03:17:36.870Z,102395.70
2019-04-29T03:20:17.528Z,102392.02
2019-04-29T03:22:51.437Z,102391.54
2019-04-29T03:25:20.768Z,102391.78
2019-04-29T03:27:51.699Z,102395.70
2019-04-29T03:30:21.013Z,102398.95
2019-04-29T03:32:50.280Z,102397.33
2019-04-29T03:35:19.582Z,102397.88
2019-04-29T03:37:48.854Z,102399.61
2019-04-29T03:40:19.302Z,102395.95
2019-04-29T03:42:49.711Z,102394.66
2019-04-29T03:45:19.074Z,102400.30
2019-04-29T03:47:48.393Z,102402.47
2019-04-29T03:50:17.897Z,102400.05
2019-04-29T03:52:47.438Z,102400.74
2019-04-29T03:55:16.715Z,102411.92
2019-04-29T03:57:46.018Z,102413.50
2019-04-29T04:00:17.026Z,102419.16
2019-04-29T04:02:47.966Z,102421.78
2019-04-29T04:05:18.896Z,102412.09
2019-04-29T04:07:54.112Z,102414.75
2019-04-29T04:10:23.480Z,102414.50
2019-04-29T04:12:52.882Z,102417.25
2019-04-29T04:15:22.162Z,102417.48
2019-04-29T04:17:53.113Z,102418.86
2019-04-29T04:20:22.796Z,102424.39
2019-04-29T04:22:53.613Z,102424.12
2019-04-29T04:25:22.941Z,102426.05
2019-04-29T04:27:53.863Z,102423.08
2019-04-29T04:30:23.395Z,102421.34
2019-04-29T04:32:52.666Z,102426.61
2019-04-29T04:35:22.107Z,102420.14
2019-04-29T04:37:51.408Z,102420.84
2019-04-29T04:40:22.367Z,102425.50
2019-04-29T04:42:51.673Z,102430.37
2019-04-29T04:45:21.141Z,102423.91
2019-04-29T04:47:50.444Z,102429.23
2019-04-29T04:50:19.797Z,102431.19
2019-04-29T04:52:49.163Z,102432.22
2019-04-29T04:55:20.161Z,102432.37
2019-04-29T04:57:49.479Z,102445.77
2019-04-29T05:00:23.165Z,102446.00
2019-04-29T05:02:52.468Z,102447.52
2019-04-29T05:05:21.778Z,102453.05
2019-04-29T05:07:51.083Z,102457.67
2019-04-29T05:10:21.533Z,102461.36
2019-04-29T05:12:50.826Z,102461.36
2019-04-29T05:15:20.124Z,102460.23
2019-04-29T05:17:52.875Z,102462.17
2019-04-29T05:20:20.806Z,102466.91
2019-04-29T05:23:01.887Z,102463.71
2019-04-29T05:25:32.217Z,102464.51
2019-04-29T05:28:01.734Z,102472.91
2019-04-29T05:30:31.064Z,102478.44
2019-04-29T05:33:00.641Z,102473.29
2019-04-29T05:35:32.669Z,102477.55
2019-04-29T05:38:19.816Z,102479.04
2019-04-29T05:40:50.772Z,102480.08
2019-04-29T05:43:21.815Z,102486.54
2019-04-29T05:45:55.850Z,102484.81
2019-04-29T05:48:27.721Z,102485.27
2019-04-29T05:51:14.531Z,102487.70
2019-04-29T05:53:47.293Z,102493.92
2019-04-29T05:56:18.109Z,102498.06
2019-04-29T05:58:47.486Z,102496.02
2019-04-29T06:01:18.396Z,102501.78
2019-04-29T06:03:47.784Z,102498.07
2019-04-29T06:06:17.051Z,102497.28
2019-04-29T06:08:46.370Z,102503.15
2019-04-29T06:11:15.677Z,102506.24
2019-04-29T06:13:44.977Z,102507.96
2019-04-29T06:16:15.968Z,102506.81
2019-04-29T06:18:45.325Z,102512.00
2019-04-29T06:21:14.626Z,102514.99
2019-04-29T06:23:44.789Z,102518.78
2019-04-29T06:26:15.265Z,102517.41
2019-04-29T06:28:45.965Z,102520.72
2019-04-29T06:31:15.501Z,102518.76
2019-04-29T06:33:44.812Z,102519.16
2019-04-29T06:36:14.206Z,102522.55
2019-04-29T06:38:43.675Z,102522.86
2019-04-29T06:41:13.036Z,102529.20
2019-04-29T06:43:42.360Z,102532.11
2019-04-29T06:46:11.702Z,102537.63
2019-04-29T06:48:41.075Z,102543.66
2019-04-29T06:51:10.503Z,102551.84
2019-04-29T06:53:39.854Z,102548.72
2019-04-29T06:56:09.414Z,102547.70
2019-04-29T06:58:38.971Z,102556.70
2019-04-29T07:01:09.239Z,102557.68
2019-04-29T07:03:38.568Z,102555.81
2019-04-29T07:06:07.873Z,102554.02
2019-04-29T07:08:37.233Z,102563.61
2019-04-29T07:11:06.559Z,102558.04
2019-04-29T07:13:36.105Z,102563.33
2019-04-29T07:16:05.454Z,102569.70
2019-04-29T07:18:34.830Z,102570.43
2019-04-29T07:21:07.493Z,102567.00
2019-04-29T07:23:35.172Z,102568.36
2019-04-29T07:26:04.445Z,102570.20
2019-04-29T07:28:33.765Z,102572.08
2019-04-29T07:31:03.370Z,102567.42
2019-04-29T07:33:34.320Z,102575.48
2019-04-29T07:36:10.928Z,102580.48
2019-04-29T07:38:41.452Z,102586.61
2019-04-29T07:41:05.683Z,102590.94
2019-04-29T07:43:41.230Z,102585.72
2019-04-29T07:46:09.372Z,102592.13
2019-04-29T07:48:41.989Z,102586.44
2019-04-29T07:51:09.871Z,102581.69
2019-04-29T07:53:45.073Z,102587.62
2019-04-29T07:56:10.247Z,102588.31
2019-04-29T07:58:39.763Z,102582.15
2019-04-29T08:01:09.149Z,102587.04
2019-04-29T08:03:38.458Z,102589.19
2019-04-29T08:06:07.826Z,102604.14
2019-04-29T08:08:37.293Z,102600.58
2019-04-29T08:11:06.949Z,102592.34
2019-04-29T08:13:37.261Z,102597.98
2019-04-29T08:16:06.662Z,102599.31
2019-04-29T08:18:35.976Z,102600.44
2019-04-29T08:21:05.379Z,102600.91
2019-04-29T08:23:41.133Z,102602.07
2019-04-29T08:26:06.067Z,102603.13
2019-04-29T08:28:35.364Z,102600.77
2019-04-29T08:31:04.734Z,102602.11
2019-04-29T08:33:34.135Z,102600.28
2019-04-29T08:36:03.613Z,102600.51
2019-04-29T08:38:32.977Z,102604.80
2019-04-29T08:41:02.305Z,102607.62
2019-04-29T08:43:36.272Z,102609.11
2019-04-29T08:46:19.517Z,102606.78
2019-04-29T08:48:48.880Z,102614.16
2019-04-29T08:51:18.246Z,102615.50
2019-04-29T08:53:47.588Z,102610.95
2019-04-29T08:56:16.897Z,102599.33
2019-04-29T08:58:49.242Z,102600.28
2019-04-29T09:01:17.282Z,102602.55
2019-04-29T09:03:46.605Z,102608.34
2019-04-29T09:06:15.930Z,102604.20
2019-04-29T09:08:54.366Z,102610.72
2019-04-29T09:11:17.820Z,102604.39
2019-04-29T09:13:47.572Z,102609.77
2019-04-29T09:16:16.887Z,102614.24
2019-04-29T09:18:46.177Z,102617.58
2019-04-29T09:21:15.476Z,102617.87
2019-04-29T09:23:44.844Z,102617.66
2019-04-29T09:26:28.123Z,102614.59
2019-04-29T09:28:59.690Z,102609.81
2019-04-29T09:31:28.411Z,102607.41
2019-04-29T09:34:06.601Z,102609.27
2019-04-29T09:36:29.090Z,102622.47
2019-04-29T09:38:58.496Z,102619.59
2019-04-29T09:41:35.109Z,102615.48
2019-04-29T09:44:05.587Z,102608.89
2019-04-29T09:46:36.413Z,102616.43
2019-04-29T09:49:05.936Z,102615.61
2019-04-29T09:51:35.291Z,102615.65
2019-04-29T09:54:04.740Z,102622.81
2019-04-29T09:56:34.746Z,102622.69
2019-04-29T09:59:22.852Z,102625.13
2019-04-29T10:01:55.133Z,102622.75
2019-04-29T10:04:27.186Z,102624.84
2019-04-29T10:06:58.180Z,102621.42
2019-04-29T10:09:27.593Z,102614.17
2019-04-29T10:11:57.977Z,102604.92
2019-04-29T10:14:28.402Z,102608.12
2019-04-29T10:17:02.420Z,102604.74
2019-04-29T10:19:50.187Z,102610.48
2019-04-29T10:22:19.679Z,102614.60
2019-04-29T10:24:48.988Z,102603.33
2019-04-29T10:27:19.104Z,102606.12
2019-04-29T10:29:50.739Z,102602.78
2019-04-29T10:32:23.147Z,102599.04
2019-04-29T10:34:52.615Z,102597.81
2019-04-29T10:37:23.803Z,102596.05
2019-04-29T10:40:11.067Z,102599.11
2019-04-29T10:42:35.341Z,102596.69
2019-04-29T10:45:08.409Z,102579.14
2019-04-29T10:47:39.588Z,102584.38
2019-04-29T10:50:15.509Z,102570.62
2019-04-29T10:52:45.558Z,102579.59
2019-04-29T10:55:15.961Z,102571.46
2019-04-29T10:57:49.764Z,102581.56
2019-04-29T11:00:24.250Z,102583.73
2019-04-29T11:02:53.914Z,102583.56
2019-04-29T11:05:28.104Z,102582.23
2019-04-29T11:08:02.514Z,102574.84
2019-04-29T11:10:32.477Z,102577.23
2019-04-29T11:13:03.658Z,102573.23
2019-04-29T11:15:34.691Z,102572.95
2019-04-29T11:18:04.656Z,102574.19
2019-04-29T11:20:35.523Z,102575.37
2019-04-29T11:23:18.245Z,102577.50
2019-04-29T11:25:51.234Z,102568.72
2019-04-29T11:28:20.757Z,102568.72
2019-04-29T11:30:50.287Z,102569.41
2019-04-29T11:33:31.373Z,102569.58
2019-04-29T11:36:10.842Z,102563.22
2019-04-29T11:38:40.747Z,102555.86
2019-04-29T11:41:17.921Z,102554.65
2019-04-29T11:43:46.731Z,102552.29
2019-04-29T11:46:15.714Z,102544.17
2019-04-29T11:48:45.293Z,102540.55
2019-04-29T11:51:22.086Z,102545.28
2019-04-29T11:53:51.516Z,102551.73
2019-04-29T11:56:20.814Z,102545.36
2019-04-29T11:59:00.457Z,102544.36
2019-04-29T12:01:38.817Z,102544.59
2019-04-29T12:04:18.832Z,102547.88
2019-04-29T12:06:51.165Z,102546.11
2019-04-29T12:09:19.722Z,102556.56
2019-04-29T12:11:49.027Z,102544.45
2019-04-29T12:14:37.973Z,102543.25
2019-04-29T12:17:25.622Z,102544.33
2019-04-29T12:19:59.657Z,102537.45
2019-04-29T12:22:31.003Z,102531.23
2019-04-29T12:25:00.616Z,102535.36
2019-04-29T12:27:30.006Z,102529.45
2019-04-29T12:29:59.825Z,102523.70
2019-04-29T12:32:33.754Z,102535.18
2019-04-29T12:35:12.296Z,102528.98
2019-04-29T12:37:55.251Z,102527.41
2019-04-29T12:40:45.531Z,102515.04
2019-04-29T12:43:21.094Z,102517.89
2019-04-29T12:46:10.138Z,102528.35
2019-04-29T12:48:38.939Z,102519.94
2019-04-29T12:51:08.553Z,102523.69
2019-04-29T12:53:37.858Z,102517.28
2019-04-29T12:56:11.205Z,102515.52
2019-04-29T12:58:38.159Z,102513.91
2019-04-29T13:01:12.146Z,102509.82
2019-04-29T13:03:43.298Z,102515.14
2019-04-29T13:06:38.720Z,102504.33
2019-04-29T13:09:01.528Z,102503.33
2019-04-29T13:11:45.354Z,102493.44
2019-04-29T13:14:02.713Z,102490.87
2019-04-29T13:16:33.703Z,102492.03
2019-04-29T13:19:25.087Z,102494.16
2019-04-29T13:21:52.541Z,102492.45
2019-04-29T13:24:24.805Z,102486.95
2019-04-29T13:26:53.004Z,102488.31
2019-04-29T13:29:27.412Z,102483.61
2019-04-29T13:31:55.027Z,102481.98
2019-04-29T13:34:31.149Z,102488.74
2019-04-29T13:37:06.636Z,102484.24
2019-04-29T13:39:39.263Z,102482.78
2019-04-29T13:42:03.023Z,102487.04
2019-04-29T13:44:31.974Z,102477.00
2019-04-29T13:47:28.389Z,102477.51
2019-04-29T13:50:17.191Z,102475.79
2019-04-29T13:52:31.760Z,102471.66
2019-04-29T13:55:16.685Z,102471.39
2019-04-29T13:57:32.519Z,102466.53
2019-04-29T14:00:14.246Z,102463.13
2019-04-29T14:02:59.283Z,102459.35
2019-04-29T14:05:32.449Z,102461.98
2019-04-29T14:08:01.582Z,102459.75
2019-04-29T14:10:30.908Z,102461.88
2019-04-29T14:13:09.659Z,102458.77
2019-04-29T14:15:33.932Z,102446.87
2019-04-29T14:18:02.242Z,102446.31
2019-04-29T14:20:31.540Z,102442.80
2019-04-29T14:23:00.905Z,102438.96
2019-04-29T14:25:30.211Z,102431.59
2019-04-29T14:27:59.488Z,102434.99
2019-04-29T14:30:38.438Z,102436.65
2019-04-29T14:33:02.031Z,102431.22
2019-04-29T14:35:36.199Z,102438.39
2019-04-29T14:38:05.319Z,102438.37
2019-04-29T14:40:38.929Z,102432.04
2019-04-29T14:43:30.979Z,102435.11
2019-04-29T14:46:07.707Z,102436.38
2019-04-29T14:48:42.583Z,102436.37
2019-04-29T14:51:09.546Z,102433.83
2019-04-29T14:53:38.723Z,102434.48
2019-04-29T14:56:08.026Z,102434.67
2019-04-29T14:58:37.368Z,102438.70
2019-04-29T15:01:12.176Z,102433.55
2019-04-29T15:03:58.652Z,102430.95
2019-04-29T15:06:29.576Z,102424.55
2019-04-29T15:08:59.203Z,102430.44
2019-04-29T15:11:31.830Z,102424.92
2019-04-29T15:14:05.786Z,102425.60
2019-04-29T15:16:37.272Z,102424.94
2019-04-29T15:19:23.815Z,102422.64
2019-04-29T15:21:54.841Z,102423.62
2019-04-29T15:24:27.453Z,102417.50
2019-04-29T15:26:55.373Z,102424.02
2019-04-29T15:29:24.734Z,102417.13
2019-04-29T15:31:54.090Z,102418.67
2019-04-29T15:34:24.429Z,102425.08
2019-04-29T15:36:53.768Z,102421.88
2019-04-29T15:39:25.325Z,102419.65
2019-04-29T15:41:54.908Z,102426.27
2019-04-29T15:44:24.620Z,102427.42
2019-04-29T15:46:53.945Z,102428.47
2019-04-29T15:49:24.688Z,102421.33
2019-04-29T15:51:54.378Z,102427.27
2019-04-29T15:54:26.016Z,102425.41
2019-04-29T15:56:55.143Z,102425.95
2019-04-29T15:59:24.419Z,102427.86
2019-04-29T16:01:53.767Z,102436.16
2019-04-29T16:04:27.823Z,102432.78
2019-04-29T16:06:57.364Z,102435.84
2019-04-29T16:09:41.973Z,102432.30
2019-04-29T16:12:05.169Z,102424.83
2019-04-29T16:14:31.176Z,102429.50
2019-04-29T16:17:01.544Z,102425.48
2019-04-29T16:19:30.993Z,102434.58
2019-04-29T16:22:00.302Z,102435.22
2019-04-29T16:24:37.755Z,102435.76
2019-04-29T16:27:01.104Z,102429.87
2019-04-29T16:29:31.624Z,102430.91
2019-04-29T16:32:03.277Z,102432.75
2019-04-29T16:34:37.561Z,102437.52
2019-04-29T16:37:03.185Z,102438.82
2019-04-29T16:39:33.077Z,102435.89
2019-04-29T16:42:07.155Z,102435.22
2019-04-29T16:44:36.674Z,102428.94
2019-04-29T16:47:13.284Z,102435.68
2019-04-29T16:49:39.651Z,102434.61
2019-04-29T16:52:09.026Z,102433.44
2019-04-29T16:54:38.302Z,102433.48
2019-04-29T16:57:07.799Z,102434.50
2019-04-29T16:59:37.154Z,102434.55
2019-04-29T17:02:06.599Z,102435.42
2019-04-29T17:04:35.892Z,102433.45
2019-04-29T17:07:14.009Z,102429.71
2019-04-29T17:09:40.878Z,102428.98
2019-04-29T17:12:10.178Z,102432.52
2019-04-29T17:15:02.353Z,102423.48
2019-04-29T17:17:15.670Z,102422.73
2019-04-29T17:19:44.981Z,102421.16
2019-04-29T17:22:25.358Z,102418.17
2019-04-29T17:24:45.692Z,102411.02
2019-04-29T17:27:42.093Z,102414.05
2019-04-29T17:30:26.044Z,102416.03
2019-04-29T17:33:26.477Z,102409.83
2019-04-29T17:35:47.781Z,102411.45
2019-04-29T17:38:17.342Z,102414.05
2019-04-29T17:40:51.105Z,102416.25
2019-04-29T17:43:19.386Z,102420.24
2019-04-29T17:45:50.487Z,102417.66
2019-04-29T17:48:22.310Z,102419.08
2019-04-29T17:50:56.156Z,102417.86
2019-04-29T17:53:30.085Z,102413.48
2019-04-29T17:56:05.333Z,102416.44
2019-04-29T17:58:36.431Z,102410.64
2019-04-29T18:01:10.445Z,102409.83
2019-04-29T18:03:45.940Z,102411.61
2019-04-29T18:06:24.447Z,102416.82
2019-04-29T18:08:52.492Z,102418.02
2019-04-29T18:11:21.877Z,102422.41
2019-04-29T18:13:52.534Z,102433.05
2019-04-29T18:16:28.010Z,102427.23
2019-04-29T18:19:08.931Z,102426.89
2019-04-29T18:21:43.326Z,102425.07
2019-04-29T18:24:18.040Z,102428.66
2019-04-29T18:26:49.941Z,102426.84
2019-04-29T18:29:20.419Z,102428.86
2019-04-29T18:31:49.802Z,102426.45
2019-04-29T18:34:19.184Z,102426.44
2019-04-29T18:36:50.026Z,102420.98
2019-04-29T18:39:29.975Z,102421.59
2019-04-29T18:41:58.697Z,102420.98
2019-04-29T18:44:29.247Z,102428.95
2019-04-29T18:46:58.704Z,102435.12
2019-04-29T18:49:28.115Z,102435.48
2019-04-29T18:52:02.299Z,102436.64
2019-04-29T18:54:30.055Z,102436.41
2019-04-29T18:56:59.475Z,102446.34
2019-04-29T18:59:33.638Z,102442.75
2019-04-29T19:02:07.900Z,102446.84
2019-04-29T19:04:38.885Z,102444.18
2019-04-29T19:07:08.282Z,102444.73
2019-04-29T19:09:39.632Z,102443.71
2019-04-29T19:12:09.049Z,102447.78
2019-04-29T19:14:38.352Z,102452.13
2019-04-29T19:17:08.021Z,102452.12
2019-04-29T19:19:39.381Z,102452.67
2019-04-29T19:22:09.854Z,102453.00
2019-04-29T19:24:39.318Z,102453.37
2019-04-29T19:27:10.048Z,102455.72
2019-04-29T19:29:43.355Z,102458.36
2019-04-29T19:32:12.053Z,102470.19
2019-04-29T19:34:43.476Z,102466.41
2019-04-29T19:37:12.515Z,102463.69
2019-04-29T19:39:44.838Z,102468.45
2019-04-29T19:42:15.649Z,102466.98
2019-04-29T19:44:46.106Z,102471.88
2019-04-29T19:47:16.698Z,102470.45
2019-04-29T19:49:46.248Z,102471.32
2019-04-29T19:52:19.067Z,102473.34
2019-04-29T19:54:47.373Z,102480.27
2019-04-29T19:57:16.674Z,102479.62
2019-04-29T19:59:51.378Z,102484.45
2019-04-29T20:02:17.826Z,102483.27
2019-04-29T20:04:58.971Z,102478.10
2019-04-29T20:07:27.357Z,102479.25
2019-04-29T20:10:03.766Z,102487.05
2019-04-29T20:12:28.271Z,102483.41
2019-04-29T20:14:59.786Z,102480.23
2019-04-29T20:17:49.252Z,102482.04
2019-04-29T20:20:19.854Z,102481.37
2019-04-29T20:22:51.230Z,102487.72
2019-04-29T20:25:29.286Z,102483.19
2019-04-29T20:28:05.118Z,102484.16
2019-04-29T20:30:22.489Z,102485.72
2019-04-29T20:32:52.153Z,102484.57
2019-04-29T20:35:21.887Z,102489.55
2019-04-29T20:37:55.694Z,102483.56
2019-04-29T20:40:22.632Z,102484.09
2019-04-29T20:42:52.088Z,102489.85
2019-04-29T20:45:25.466Z,102491.41
2019-04-29T20:47:53.516Z,102488.02
2019-04-29T20:50:25.154Z,102490.54
2019-04-29T20:53:05.903Z,102498.45
2019-04-29T20:55:36.481Z,102501.77
2019-04-29T20:58:06.843Z,102501.43
2019-04-29T21:00:38.405Z,102502.03
2019-04-29T21:03:11.224Z,102500.00
2019-04-29T21:05:48.306Z,102502.14
2019-04-29T21:08:16.178Z,102500.11
2019-04-29T21:10:42.914Z,102496.23
2019-04-29T21:13:25.651Z,102497.20
2019-04-29T21:15:59.305Z,102501.81
2019-04-29T21:18:27.384Z,102496.80
2019-04-29T21:20:59.557Z,102499.47
2019-04-29T21:23:35.010Z,102503.38
2019-04-29T21:26:00.495Z,102502.14
2019-04-29T21:28:31.538Z,102501.13
2019-04-29T21:31:01.696Z,102505.50
2019-04-29T21:33:31.247Z,102501.27
2019-04-29T21:36:11.301Z,102503.91
2019-04-29T21:38:48.649Z,102501.91
2019-04-29T21:41:31.874Z,102501.65
2019-04-29T21:44:02.549Z,102504.06
2019-04-29T21:46:31.917Z,102506.47
2019-04-29T21:49:05.038Z,102507.91
2019-04-29T21:51:33.268Z,102506.69
2019-04-29T21:54:02.590Z,102498.78
2019-04-29T21:56:31.870Z,102501.42
2019-04-29T21:59:02.745Z,102495.36
2019-04-29T22:01:34.254Z,102499.55
2019-04-29T22:04:04.272Z,102503.69
2019-04-29T22:06:33.588Z,102490.54
2019-04-29T22:09:04.986Z,102490.98
2019-04-29T22:11:43.137Z,102490.01
2019-04-29T22:14:09.863Z,102487.45
2019-04-29T22:16:38.873Z,102488.58
2019-04-29T22:19:08.189Z,102489.14
2019-04-29T22:21:37.541Z,102489.38
2019-04-29T22:24:07.018Z,102485.98
2019-04-29T22:26:36.320Z,102484.21
2019-04-29T22:29:05.624Z,102481.23
2019-04-29T22:31:38.192Z,102479.35
2019-04-29T22:34:09.872Z,102480.91
2019-04-29T22:36:37.036Z,102474.58
2019-04-29T22:39:07.781Z,102477.22
2019-04-29T22:41:55.553Z,102481.99
2019-04-29T22:44:27.068Z,102479.20
2019-04-29T22:46:56.336Z,102478.61
2019-04-29T22:49:29.172Z,102480.80
2019-04-29T22:51:57.255Z,102486.59
2019-04-29T22:54:26.683Z,102480.16
2019-04-29T22:56:56.751Z,102490.92
2019-04-29T22:59:27.482Z,102484.34
2019-04-29T23:01:59.546Z,102488.85
2019-04-29T23:04:28.851Z,102487.84
2019-04-29T23:06:58.121Z,102486.44
2019-04-29T23:09:27.469Z,102486.22
2019-04-29T23:11:56.773Z,102485.47
2019-04-29T23:14:26.171Z,102482.86
2019-04-29T23:16:55.627Z,102482.30
2019-04-29T23:19:25.912Z,102478.08
2019-04-29T23:22:10.594Z,102482.30
2019-04-29T23:24:41.641Z,102477.93
2019-04-29T23:27:11.541Z,102475.45
2019-04-29T23:29:43.176Z,102478.57
2019-04-29T23:32:13.081Z,102473.53
2019-04-29T23:34:42.456Z,102471.91
2019-04-29T23:37:11.814Z,102471.91
2019-04-29T23:39:41.592Z,102473.04
2019-04-29T23:42:13.627Z,102467.53
2019-04-29T23:44:43.854Z,102468.59
2019-04-29T23:47:13.050Z,102464.95
2019-04-29T23:49:44.499Z,102464.30
2019-04-29T23:52:13.574Z,102464.53
2019-04-29T23:54:46.951Z,102458.54
2019-04-29T23:57:22.919Z,102459.94
